createdAt,value
2018-02-14T20:16:36.850Z,101280.17
2018-02-14T20:19:05.234Z,101285.02
2018-02-14T20:21:33.656Z,101286.62
2018-02-14T20:24:02.814Z,101289.07
2018-02-14T20:26:31.187Z,101291.06
2018-02-14T20:28:59.598Z,101284.78
2018-02-14T20:31:28.796Z,101291.37
2018-02-14T20:33:57.973Z,101292.05
2018-02-14T20:36:27.187Z,101301.13
2018-02-14T20:38:55.616Z,101294.41
2018-02-14T20:41:23.981Z,101287.36
2018-02-14T20:43:52.365Z,101284.36
2018-02-14T20:46:20.768Z,101281.80
2018-02-14T20:48:49.151Z,101280.46
2018-02-14T20:51:17.681Z,101278.58
2018-02-14T20:53:46.860Z,101283.00
2018-02-14T20:56:16.045Z,101285.66
2018-02-14T20:58:44.485Z,101287.78
2018-02-14T21:01:12.853Z,101285.11
2018-02-14T21:03:41.281Z,101288.48
2018-02-14T21:06:09.661Z,101281.61
2018-02-14T21:08:38.037Z,101287.64
2018-02-14T21:11:06.434Z,101294.37
2018-02-14T21:13:35.592Z,101285.28
2018-02-14T21:16:03.996Z,101280.50
2018-02-14T21:18:32.401Z,101280.22
2018-02-14T21:21:00.850Z,101276.15
2018-02-14T21:23:29.285Z,101272.09
2018-02-14T21:25:57.737Z,101268.17
2018-02-14T21:28:26.912Z,101260.61
2018-02-14T21:30:55.324Z,101260.48
2018-02-14T21:33:23.761Z,101262.87
2018-02-14T21:35:52.211Z,101268.95
2018-02-14T21:38:20.586Z,101271.19
2018-02-14T21:40:48.993Z,101275.05
2018-02-14T21:43:17.453Z,101271.68
2018-02-14T21:45:45.853Z,101269.94
2018-02-14T21:48:14.262Z,101265.81
2018-02-14T21:50:43.448Z,101263.55
2018-02-14T21:53:11.870Z,101260.39
2018-02-14T21:55:40.262Z,101258.64
2018-02-14T21:58:08.694Z,101255.85
2018-02-14T22:00:37.889Z,101256.53
2018-02-14T22:03:07.113Z,101257.66
2018-02-14T22:05:35.563Z,101252.62
2018-02-14T22:08:04.737Z,101245.73
2018-02-14T22:10:33.233Z,101240.56
2018-02-14T22:13:01.644Z,101234.66
2018-02-14T22:15:30.050Z,101229.41
2018-02-14T22:17:58.529Z,101224.28
2018-02-14T22:20:27.087Z,101223.61
2018-02-14T22:22:55.509Z,101220.73
2018-02-14T22:25:23.954Z,101213.91
2018-02-14T22:27:52.361Z,101219.40
2018-02-14T22:30:20.771Z,101209.94
2018-02-14T22:32:49.261Z,101218.19
2018-02-14T22:35:17.690Z,101211.95
2018-02-14T22:37:46.107Z,101211.82
2018-02-14T22:40:14.537Z,101207.64
2018-02-14T22:42:42.909Z,101207.21
2018-02-14T22:45:11.332Z,101205.10
2018-02-14T22:47:39.710Z,101199.66
2018-02-14T22:50:08.109Z,101197.00
2018-02-14T22:52:36.492Z,101198.23
2018-02-14T22:55:04.891Z,101205.31
2018-02-14T22:57:34.067Z,101206.92
2018-02-14T23:00:02.468Z,101204.41
2018-02-14T23:02:31.653Z,101197.77
2018-02-14T23:05:00.882Z,101201.21
2018-02-14T23:07:29.289Z,101202.17
2018-02-14T23:09:57.676Z,101197.95
2018-02-14T23:12:26.150Z,101197.55
2018-02-14T23:14:54.531Z,101192.45
2018-02-14T23:17:22.990Z,101198.05
2018-02-14T23:19:51.460Z,101196.84
2018-02-14T23:22:19.851Z,101206.16
2018-02-14T23:24:48.225Z,101207.08
2018-02-14T23:27:16.611Z,101209.94
2018-02-14T23:29:45.039Z,101207.41
2018-02-14T23:32:14.180Z,101201.91
2018-02-14T23:34:42.549Z,101194.62
2018-02-14T23:37:10.960Z,101197.49
2018-02-14T23:39:39.340Z,101195.58
2018-02-14T23:42:07.738Z,101191.25
2018-02-14T23:44:36.114Z,101181.23
2018-02-14T23:47:04.518Z,101184.74
2018-02-14T23:49:33.681Z,101188.36
2018-02-14T23:52:02.068Z,101183.04
2018-02-14T23:54:30.506Z,101185.78
2018-02-14T23:56:58.874Z,101185.64
2018-02-14T23:59:27.240Z,101198.81
